• Join FlightAware (Why Join?)
  • Login
  • US Flag 
Rudolph Flight #1: Arrived! 
08:41AM EST


 

Airport Tracker/Info


-or-


 

Live Flight TrackerFlight Track Log ✈ ASQ6137 ✈ 09-May-2013 ✈ KBHM - KORD

Flight Track Log - Related Links

Times and Time Zones

All times are in EDT time to prevent confusion due to time zone crossing. See the ASQ6137 flight status page for this flight to view local times or setup timezone preferences in your user account.

Time Position Orientation Groundspeed Altitude Reporting Facility
EDT Latitude Longitude Course Direction KTS MPH feet Rate Location/Type
07:08AM 33.5706 -86.7439 51° Northeast 152 175 1,300  Level Atlanta Center
07:09AM 33.6072 -86.6903 51° Northeast 199 229 3,400 1,980 Climbing Atlanta Center
07:10AM 33.6647 -86.6244 44° Northeast 244 281 6,200 2,280 Climbing Atlanta Center
07:11AM 33.7203 -86.5639 42° Northeast 250 288 8,800 2,100 Climbing Atlanta Center
07:12AM 33.7717 -86.5053 43° Northeast 245 282 10,500 1,380 Climbing Atlanta Center
07:13AM 33.8336 -86.4372 42° Northeast 267 307 11,600 1,080 Climbing Atlanta Center
07:14AM 33.8997 -86.3614 44° Northeast 293 337 12,700 1,140 Climbing Atlanta Center
07:15AM 33.9700 -86.2831 43° Northeast 323 372 14,000 1,260 Climbing Atlanta Center
07:16AM 34.0444 -86.1997 43° Northeast 342 394 15,300 1,260 Climbing Atlanta Center
07:17AM 34.1211 -86.1164 42° Northeast 354 407 16,600 1,200 Climbing Atlanta Center
07:18AM 34.1978 -86.0281 44° Northeast 363 418 17,800 1,260 Climbing Atlanta Center
07:19AM 34.2742 -85.9392 44° Northeast 370 426 19,200 1,320 Climbing Atlanta Center
07:20AM 34.3508 -85.8503 44° Northeast 375 432 20,500 1,200 Climbing Atlanta Center
07:21AM 34.4250 -85.7714 41° Northeast 375 432 21,700 1,260 Climbing Atlanta Center
07:22AM 34.5033 -85.6822 43° Northeast 375 432 23,100 1,320 Climbing Atlanta Center
07:23AM 34.5858 -85.5956 41° Northeast 380 437 24,400 1,260 Climbing Atlanta Center
07:24AM 34.6867 -85.5494 21° North 374 430 25,700 1,260 Climbing Atlanta Center
07:25AM 34.7853 -85.5056 20° North 374 430 27,000 1,320 Climbing Atlanta Center
07:26AM 34.8858 -85.4644 19° North 374 430 28,400 1,320 Climbing Atlanta Center
07:27AM 34.9844 -85.4206 20° North 374 430 29,700 1,260 Climbing Atlanta Center
07:28AM 35.0892 -85.3764 19° North 368 423 31,000 1,320 Climbing Atlanta Center
07:29AM 35.1858 -85.3322 20° North 368 423 32,400 1,320 Climbing Atlanta Center
07:30AM 35.2842 -85.2881 20° North 368 423 33,700 780 Climbing Atlanta Center
07:31AM 35.3828 -85.2461 19° North 368 423 34,000 120 Climbing Atlanta Center
07:32AM 35.4856 -85.1992 20° North 374 430 34,000  Level Atlanta Center
07:33AM 35.5922 -85.1547 19° North 381 438 34,000  Level Atlanta Center
07:34AM 35.6992 -85.1078 20° North 393 452 34,000  Level Atlanta Center
07:35AM 35.8058 -85.0603 20° North 393 452 34,000  Level Atlanta Center
07:37AM 36.0000 -84.9708 20° North 406 467 34,000  Level Indianapolis Center
07:38AM 36.1058 -84.9228 20° North 401 461 34,000  Level Indianapolis Center
07:39AM 36.2325 -84.8656 20° North 401 461 34,000  Level Indianapolis Center
07:41AM 36.3381 -84.8186 20° North 403 464 34,000  Level Indianapolis Center
07:42AM 36.4431 -84.7733 19° North 398 458 34,000  Level Indianapolis Center
07:43AM 36.5503 -84.7425 13° North 397 457 34,000  Level Indianapolis Center
07:44AM 36.6578 -84.7103 14° North 397 457 34,000  Level Indianapolis Center
07:45AM 36.7644 -84.6786 13° North 395 455 34,000  Level Indianapolis Center
07:46AM 36.8719 -84.6469 13° North 395 455 34,000  Level Indianapolis Center
07:47AM 36.9819 -84.6142 13° North 403 464 34,000  Level Indianapolis Center
07:48AM 37.1136 -84.5750 13° North 406 467 34,000  Level Indianapolis Center
07:49AM 37.2242 -84.5425 13° North 406 467 34,000  Level Indianapolis Center
07:50AM 37.3333 -84.5103 13° North 404 465 34,000  Level Indianapolis Center
07:51AM 37.4414 -84.4772 14° North 399 459 34,000 -360 Level Indianapolis Center
07:52AM 37.5508 -84.4439 14° North 402 463 33,300 -840 Descending Indianapolis Center
07:53AM 37.6622 -84.4292 North 398 458 32,300 -660 Descending Indianapolis Center
07:54AM 37.7667 -84.4708 342° North 393 452 32,000 -180 Descending Indianapolis Center
07:55AM 37.8722 -84.5164 341° North 400 460 32,000  Level Indianapolis Center
07:56AM 37.9942 -84.5714 340° North 396 456 32,000  Level Indianapolis Center
07:57AM 38.1006 -84.6147 342° North 400 460 32,000 -600 Level Indianapolis Center
07:58AM 38.2067 -84.6594 342° North 399 459 30,800 -1,440 Descending Indianapolis Center
07:59AM 38.3125 -84.7050 341° North 399 459 29,100 -1,380 Descending Indianapolis Center
08:00AM 38.4200 -84.7514 341° North 407 468 28,000 -540 Descending Indianapolis Center
08:01AM 38.5300 -84.7994 341° North 413 475 28,000  Level Indianapolis Center
08:02AM 38.6497 -84.8522 341° North 419 482 28,000  Level Indianapolis Center
08:03AM 38.7600 -84.8997 341° North 421 484 28,000  Level Indianapolis Center
08:04AM 38.8700 -84.9492 341° North 421 484 28,000  Level Indianapolis Center
08:05AM 38.9803 -84.9961 342° North 419 482 28,000  Level Indianapolis Center
08:06AM 39.0903 -85.0453 341° North 420 483 28,000  Level Indianapolis Center
08:07AM 39.2217 -85.1033 341° North 419 482 28,000  Level Indianapolis Center
08:08AM 39.3317 -85.1528 341° North 419 482 28,000  Level Indianapolis Center
08:09AM 39.4408 -85.2017 341° North 419 482 28,000  Level Indianapolis Center
08:10AM 39.5517 -85.2506 341° North 422 486 28,000  Level Indianapolis Center
08:11AM 39.6619 -85.3003 341° North 422 486 28,000  Level Indianapolis Center
08:12AM 39.7717 -85.3500 341° North 422 486 28,000  Level Indianapolis Center
08:13AM 39.9039 -85.4097 341° North 422 486 28,000  Level Indianapolis Center
08:14AM 40.0147 -85.4600 341° North 424 488 28,000 -480 Level Indianapolis Center
08:15AM 40.1239 -85.5092 341° North 422 486 27,100 -1,020 Descending Indianapolis Center
08:16AM 40.2328 -85.5586 341° North 418 481 26,000 -1,080 Descending Indianapolis Center
08:18AM 40.3419 -85.6094 340° North 418 481 24,900 -1,020 Descending Indianapolis Center
08:19AM 40.4514 -85.6597 341° North 420 483 24,000 -960 Descending Indianapolis Center
08:20AM 40.5847 -85.7189 341° North 423 487 23,000 -1,020 Descending Indianapolis Center
08:21AM 40.6953 -85.7689 341° North 421 484 22,000 -1,020 Descending Indianapolis Center
08:22AM 40.8036 -85.8214 340° North 419 482 21,000 -900 Descending Indianapolis Center
08:23AM 40.8875 -85.9267 317° Northwest 420 483 20,200 -540 Descending Indianapolis Center
08:24AM 40.9681 -86.0319 315° West 412 474 20,000 -120 Descending Indianapolis Center
08:25AM 41.0497 -86.1364 316° Northwest 411 473 20,000  Level Indianapolis Center
08:26AM 41.1461 -86.2656 315° West 412 474 20,000  Level Indianapolis Center
08:27AM 41.2297 -86.3708 317° Northwest 415 478 20,000 -540 Level Indianapolis Center
08:28AM 41.3419 -86.4817 323° Northwest 412 474 18,800 -1,500 Descending Chicago Center
08:29AM 41.4317 -86.5700 324° Northwest 403 464 16,600 -2,220 Descending Chicago Center
08:30AM 41.5181 -86.6567 323° Northwest 394 453 14,300 -2,040 Descending Chicago Center
08:31AM 41.6017 -86.7389 324° Northwest 380 437 12,500 -1,080 Descending Chicago Center
08:32AM 41.6864 -86.7978 333° Northwest 360 414 12,100 -540 Descending Chicago Center
08:33AM 41.8039 -86.8161 353° North 357 411 11,500 -600 Descending Chicago Center
08:34AM 41.8828 -86.8686 334° Northwest 341 392 10,900 -840 Descending Chicago Center
08:35AM 41.9192 -86.9658 297° West 300 345 9,800 -960 Descending Chicago Center
08:36AM 41.9522 -87.0542 297° West 275 316 9,000 -840 Descending Chicago Center
08:37AM 41.9803 -87.1661 289° West 267 307 8,100 -540 Descending Chicago Center
08:38AM 41.9828 -87.2669 272° West 269 310 8,000 -120 Descending Chicago Center
08:39AM 41.9833 -87.3664 270° West 269 310 7,900 -240 Descending Chicago Center
08:40AM 41.9833 -87.4167 270° West 263 303 7,700 -1,260 Descending Chicago TRACON
08:41AM 41.9833 -87.5000 270° West 268 308 6,200 -1,440 Descending Chicago TRACON
08:42AM 41.9833 -87.6000 270° West 236 272 4,900 -1,200 Descending Chicago TRACON
08:43AM 41.9833 -87.6833 270° West 202 232 3,900 -1,140 Descending Chicago TRACON
08:44AM 41.9833 -87.7500 270° West 176 203 2,700 -1,140 Descending Chicago TRACON
08:45AM 41.9833 -87.8167 270° West 159 183 1,700 -900 Descending Chicago TRACON
08:46AM 41.9833 -87.8667 270° West 138 159 1,000 -720 Descending Chicago TRACON